Campanya meteocatpedra

Dades EMA Gandesa

?
?
Resum diari 21:00 TU
Dades diàries de l'estació meteorològica
Temperatura mitjana 25.3 °C
Temperatura màxima 33.1 °C 14:56 TU
Temperatura mínima 20.2 °C 5:30 TU
Humitat relativa mitjana 73%
Precipitació acumulada 0.0 mm
Ratxa màxima del vent (2 m) 19.8 km/h - 156º 16:08 TU
Irradiació solar global 19.1 MJ/m2

El tram horari està expressat en Temps Universal (TU). Cal sumar una hora en horari d'hivern i dues en horari d'estiu per passar a l'hora oficial.

Gandesa

Metadades estació meteorol´gica
Municipi Gandesa
Comarca Terra Alta
Altitud 349 m
Data alta 30.11.2011
Estat actual Operativa
Dades de període
Període
TU
TM
°C
TX
°C
TN
°C
HRM
%
PPT
mm
VVM (2 m)
km/h
DVM (2 m)
graus
VVX (2 m)
km/h
RS
W/m2
00:00 - 00:30 21.7 21.8 21.6 91 0.0 2.9 81 9.7 0
00:30 - 01:00 21.7 21.8 21.6 91 0.0 2.9 56 10.4 0
01:00 - 01:30 21.7 21.8 21.6 92 0.0 5.4 89 11.2 0
01:30 - 02:00 21.7 21.8 21.6 93 0.0 5.0 87 8.6 0
02:00 - 02:30 21.6 21.8 21.6 93 0.0 5.4 90 11.2 0
02:30 - 03:00 21.6 21.6 21.4 94 0.0 5.8 94 13.0 0
03:00 - 03:30 21.5 21.6 21.4 95 0.0 3.6 92 7.2 0
03:30 - 04:00 21.3 21.5 21.3 95 0.0 2.9 96 6.5 0
04:00 - 04:30 21.1 21.4 21.0 95 0.0 2.2 262 9.4 0
04:30 - 05:00 20.8 21.0 20.5 86 0.0 4.7 216 12.6 0
05:00 - 05:30 20.3 20.5 20.2 87 0.0 2.5 243 7.2 9
05:30 - 06:00 20.4 20.6 20.2 87 0.0 2.2 240 5.4 34
06:00 - 06:30 20.7 20.8 20.6 87 0.0 2.5 249 5.4 45
06:30 - 07:00 21.0 21.4 20.8 88 0.0 2.5 226 6.1 69
07:00 - 07:30 21.7 21.9 21.4 85 0.0 3.2 223 6.8 133
07:30 - 08:00 21.9 22.2 21.7 85 0.0 2.5 228 6.1 124
08:00 - 08:30 22.8 23.3 22.2 81 0.0 2.5 198 6.8 284
08:30 - 09:00 23.5 24.5 23.0 77 0.0 1.8 321 6.1 348
09:00 - 09:30 24.6 25.5 24.1 75 0.0 2.9 79 7.6 457
09:30 - 10:00 25.4 26.0 24.9 72 0.0 2.9 67 7.9 405
10:00 - 10:30 25.6 26.6 25.1 71 0.0 2.5 102 7.9 383
10:30 - 11:00 26.5 27.7 25.8 68 0.0 3.6 10 9.7 510
11:00 - 11:30 27.1 27.6 26.6 65 0.0 3.2 90 11.2 432
11:30 - 12:00 28.2 29.2 27.0 62 0.0 3.6 58 10.4 750
12:00 - 12:30 28.6 29.8 27.8 60 0.0 3.6 83 10.8 764
12:30 - 13:00 29.4 29.8 28.7 56 0.0 4.3 90 12.2 808
13:00 - 13:30 30.0 30.7 29.1 55 0.0 5.0 79 13.3 821
13:30 - 14:00 30.7 31.3 30.4 50 0.0 4.3 92 12.2 788
14:00 - 14:30 31.8 32.4 31.0 45 0.0 4.0 135 12.2 705
14:30 - 15:00 32.4 33.1 32.0 44 0.0 5.4 147 12.2 643
15:00 - 15:30 32.3 32.7 32.0 45 0.0 6.8 154 16.6 573
15:30 - 16:00 31.2 32.0 30.7 50 0.0 8.3 141 18.0 349
16:00 - 16:30 30.7 31.3 30.4 52 0.0 8.6 140 19.8 438
16:30 - 17:00 30.5 30.7 30.2 53 0.0 7.2 141 16.6 325
17:00 - 17:30 29.8 30.3 29.4 54 0.0 6.8 142 14.8 229
17:30 - 18:00 28.9 29.4 28.2 57 0.0 5.8 141 14.8 134
18:00 - 18:30 27.8 28.2 27.4 62 0.0 3.6 138 10.4 59
18:30 - 19:00 26.6 27.3 26.1 66 0.0 4.0 115 10.4 11
19:00 - 19:30 25.7 26.1 25.3 69 0.0 4.7 101 13.0 0
19:30 - 20:00 25.0 25.3 24.6 73 0.0 5.8 114 13.3 0
20:00 - 20:30 24.5 24.6 24.3 73 0.0 5.8 111 10.8 0
20:30 - 21:00 24.1 24.3 23.9 72 0.0 5.0 115 11.9 0
21:00 - 21:30 23.8 23.9 23.6 71 0.0 5.4 116 12.6 0

Les dades en taronja només han passat un control de qualitat automàtic. Resta pendent la seva validació definitiva.